ADDS METAR Data INFO
IDs: Format: Raw Decoded Include TAF

Data at: 1632 UTC 23 Nov 2017

KSET 231554Z AUTO 21008KT 10SM CLR 07/M06 A3007 RMK AO2 SLP185 T00671061
No TAF found for KSET

KSTL 231551Z 21007KT 10SM SCT250 07/M06 A3008 RMK AO2 SLP192 T00671056

KSTL 231456Z 2315/2418 20006KT P6SM SCT250
  FM231700 24010KT P6SM BKN250
  FM232300 21004KT P6SM SCT250
  FM241500 19010KT P6SM SCT150 BKN250